• Join FlightAware (Why Join?)
  • Login
  • US Flag 
07:19PM EDT


 

Airport Tracker/Info


-or-


 

Live Flight TrackerFlight Track Log ✈ SKW5476 ✈ 25-Apr-2013 ✈ KSFO - KRDM

Flight Track Log - Related Links

Times and Time Zones

All times are in EDT time to prevent confusion due to time zone crossing. See the SKW5476 flight status page for this flight to view local times or setup timezone preferences in your user account.

Time Position Orientation Groundspeed Altitude Reporting Facility
EDT Latitude Longitude Course Direction KTS MPH feet Rate Location/Type
03:08PM 37.6500 -122.3667 North 143 165 1,200  Level Northern Cal TRACON
03:08PM 37.6761 -122.3656 North 179 206 1,900 1,500 Climbing Oakland Center
03:09PM 37.7278 -122.3608 North 184 212 3,900 1,860 Climbing Oakland Center
03:10PM 37.7753 -122.3789 343° North 182 209 5,800 1,860 Climbing Oakland Center
03:11PM 37.8260 -122.3654 353° North  Level FlightAware Approximate
03:11PM 37.8381 -122.3719 North 189 217 7,800  Level Oakland Center
03:12PM 37.8959 -122.3709 345° North  Level FlightAware Approximate
03:13PM 37.9583 -122.3667 North  Level FlightAware Approximate
03:13PM 37.8922 -122.3808 353° North 193 222 9,600  Level Oakland Center
03:14PM 37.9467 -122.3825 359° North 198 228 11,400 1,560 Climbing Oakland Center
03:15PM 38.0022 -122.3808 North 202 232 12,900 1,380 Climbing Oakland Center
03:17PM 38.1136 -122.3642 North 202 232 15,800 1,320 Climbing Oakland Center
03:18PM 38.1794 -122.3517 North 201 231 17,000 1,080 Climbing Oakland Center
03:19PM 38.2353 -122.3411 North 204 235 18,100 1,020 Climbing Oakland Center
03:20PM 38.2919 -122.3303 North 206 237 19,100 900 Climbing Oakland Center
03:21PM 38.3494 -122.3203 North 209 241 20,000 900 Climbing Oakland Center
03:22PM 38.4075 -122.3114 North 209 241 21,000 900 Climbing Oakland Center
03:23PM 38.4628 -122.2992 10° North 205 236 21,900 720 Climbing Oakland Center
03:24PM 38.5211 -122.2894 North 212 244 22,500 600 Climbing Oakland Center
03:25PM 38.5800 -122.2781 North 214 246 23,200 660 Climbing Oakland Center
03:26PM 38.6517 -122.2658 North 217 250 23,900 300 Climbing Oakland Center
03:27PM 38.7075 -122.2558 North 227 261 23,900  Level Oakland Center
03:28PM 38.7739 -122.2436 North 238 274 24,000  Climbing Oakland Center
03:29PM 38.8378 -122.2319 North 231 266 24,000  Level Oakland Center
03:30PM 38.9031 -122.2200 North 238 274 24,000  Level Oakland Center
03:31PM 38.9789 -122.2067 North 229 264 24,000  Level Oakland Center
03:32PM 39.0431 -122.1939 North 231 266 24,000  Level Oakland Center
03:33PM 39.1050 -122.1822 North 226 260 24,000  Level Oakland Center
03:34PM 39.1686 -122.1719 North 229 264 24,000  Level Oakland Center
03:35PM 39.2311 -122.1597 North 226 260 24,000  Level Oakland Center
03:36PM 39.2936 -122.1478 North 225 259 24,000  Level Oakland Center
03:37PM 39.3564 -122.1369 North 227 261 24,000  Level Oakland Center
03:38PM 39.4181 -122.1242 North 225 259 24,000  Level Oakland Center
03:39PM 39.4878 -122.1097 North 226 260 24,000  Level Oakland Center
03:40PM 39.5483 -122.0994 North 222 255 24,000  Level Oakland Center
03:41PM 39.6100 -122.0878 North 225 259 24,000  Level Oakland Center
03:42PM 39.6719 -122.0758 North 225 259 24,000  Level Oakland Center
03:43PM 39.7325 -122.0653 North 222 255 24,000  Level Oakland Center
03:44PM 39.8067 -122.0503 North 226 260 24,000  Level Oakland Center
03:45PM 39.8672 -122.0389 North 221 254 24,000  Level Oakland Center
03:46PM 39.9283 -122.0278 North 223 257 24,000  Level Oakland Center
03:47PM 39.9889 -122.0167 North 221 254 24,000  Level Oakland Center
03:48PM 40.0497 -122.0039 North 224 258 24,000  Level Oakland Center
03:49PM 40.1117 -121.9925 North 227 261 24,000  Level Oakland Center
03:50PM 40.1736 -121.9803 North 227 261 24,000  Level Oakland Center
03:51PM 40.2478 -121.9664 North 227 261 24,000  Level Oakland Center
03:52PM 40.3097 -121.9553 North 226 260 24,000  Level Oakland Center
03:53PM 40.3722 -121.9425 North 227 261 24,000  Level Oakland Center
03:55PM 40.4356 -121.9306 North 229 264 24,000  Level Oakland Center
03:56PM 40.4992 -121.9183 North 231 266 24,000  Level Oakland Center
03:57PM 40.5614 -121.9072 North 229 264 24,000  Level Oakland Center
03:58PM 40.6372 -121.8922 North 229 264 24,000  Level Oakland Center
03:59PM 40.6994 -121.8792 North 228 262 24,000  Level Oakland Center
04:00PM 40.7628 -121.8678 North 230 265 24,000  Level Oakland Center
04:01PM 40.8261 -121.8556 North 230 265 24,000  Level Oakland Center
04:02PM 40.8889 -121.8428 North 229 264 24,000  Level Oakland Center
04:03PM 40.9525 -121.8317 North 231 266 24,000  Level Oakland Center
04:04PM 41.0139 -121.8181 North 225 259 24,000  Level Oakland Center
04:05PM 41.0750 -121.8061 North 224 258 24,000 -60 Level Oakland Center
04:06PM 41.1489 -121.7947 North 223 257 23,900 -60 Descending Seattle Center
04:07PM 41.2064 -121.7833 North 221 254 23,900  Level Seattle Center
04:08PM 41.2669 -121.7719 North 220 253 23,900  Level Seattle Center
04:09PM 41.3264 -121.7592 North 218 251 24,000  Climbing Seattle Center
04:10PM 41.3869 -121.7483 North 220 253 24,000 -60 Level Seattle Center
04:11PM 41.4592 -121.7336 North 219 252 23,900 -60 Descending Seattle Center
04:12PM 41.5189 -121.7214 North 218 251 23,900  Level Seattle Center
04:13PM 41.5778 -121.7089 North 216 249 23,900  Level Seattle Center
04:14PM 41.6383 -121.6975 North 218 251 23,900  Level Seattle Center
04:15PM 41.6978 -121.6861 North 218 251 23,900  Level Seattle Center
04:16PM 41.7569 -121.6739 North 215 247 23,900  Level Seattle Center
04:17PM 41.8161 -121.6619 North 216 249 23,900  Level Seattle Center
04:18PM 41.8750 -121.6503 North 216 249 23,900  Level Seattle Center
04:19PM 41.9336 -121.6383 North 215 247 23,900  Level Seattle Center
04:20PM 41.9919 -121.6253 North 216 249 23,900  Level Seattle Center
04:21PM 42.0628 -121.6114 North 218 251 23,900  Level Seattle Center
04:22PM 42.1219 -121.5983 North 217 250 23,900  Level Seattle Center
04:23PM 42.1811 -121.5861 North 217 250 23,900  Level Seattle Center
04:24PM 42.2400 -121.5758 North 216 249 23,900  Level Seattle Center
04:25PM 42.2997 -121.5622 10° North 220 253 23,900  Level Seattle Center
04:26PM 42.3603 -121.5506 North 221 254 23,900  Level Seattle Center
04:27PM 42.4197 -121.5381 North 219 252 23,900  Level Seattle Center
04:28PM 42.4806 -121.5253 North 220 253 23,900  Level Seattle Center
04:29PM 42.5394 -121.5128 North 216 249 23,900 -360 Level Seattle Center
04:30PM 42.6028 -121.4997 North 224 258 23,200 -900 Descending Seattle Center
04:31PM 42.6731 -121.4847 North 248 285 22,100 -1,140 Descending Seattle Center
04:32PM 42.7614 -121.4653 North 265 305 21,000 -960 Descending Seattle Center
04:33PM 42.8344 -121.4539 North 264 304 20,200 -840 Descending Seattle Center
04:34PM 42.9078 -121.4369 10° North 266 306 19,400 -900 Descending Seattle Center
04:35PM 42.9806 -121.4231 North 265 305 18,400 -1,080 Descending Seattle Center
04:36PM 43.0558 -121.4075 North 272 313 17,300 -1,020 Descending Seattle Center
04:37PM 43.1303 -121.3919 North 271 312 16,400 -720 Descending Seattle Center
04:38PM 43.2022 -121.3758 North 262 302 15,900 -480 Descending Seattle Center
04:39PM 43.2733 -121.3617 North 258 297 15,500 -480 Descending Seattle Center
04:40PM 43.3436 -121.3469 North 256 295 15,000 -480 Descending Seattle Center
04:41PM 43.4142 -121.3325 North 257 296 14,600 -420 Descending Seattle Center
04:43PM 43.4842 -121.3167 North 255 293 14,200 -600 Descending Seattle Center
04:44PM 43.5658 -121.2764 20° North 263 303 13,500 -780 Descending Seattle Center
04:45PM 43.6364 -121.2417 20° North 269 310 12,700 -960 Descending Seattle Center
04:46PM 43.7081 -121.2094 18° North 270 311 11,600 -960 Descending Seattle Center
04:47PM 43.7828 -121.1750 18° North 281 323 10,800 -840 Descending Seattle Center
04:48PM 43.8567 -121.1433 17° North 280 322 10,000 -420 Descending Seattle Center
04:49PM 43.9281 -121.1111 18° North 275 316 10,000 -720 Level Seattle Center
04:51PM 44.0694 -121.0494 17° North 269 310 7,900 -1,080 Descending Seattle Center